Hyde Park, Indiana
Current Conditions -  °F | °C
As of 10:53 PM on Saturday 25 Oct 2014 (Local Time) from KMIE Reporting Station
Clear Clear  
Wind Chill: 58°   Ceiling: Unl
Heat Index: 58°   Visibility: 10mi
Dew Point: 44°   Wind: 9mph
Humidity: 60%   Direction: 290°WNW
Pressure: 29.93"   Gusts: NA
Location:  40.1286°N, 85.3767°W
Report Text: KMIE 260253Z 29008KT 10SM CLR 14/07 A2993 RMK AO2 SLP128 T01440067 53010
Loading
Personal Weather Stations






























Interactive Weather Map
Tropical Storm Tracking
New forecast layout! Learn more

10-Day Weather Forecast

Advertisements
Track Severe Weather on mobile